createdAt,value
2022-12-08T00:03:27.497Z,4.78
2022-12-08T00:08:47.989Z,5.03
2022-12-08T00:13:49.643Z,5.18
2022-12-08T00:18:51.327Z,5.30
2022-12-08T00:23:55.368Z,5.05
2022-12-08T00:28:57.023Z,6.00
2022-12-08T00:33:58.985Z,5.50
2022-12-08T00:39:00.909Z,5.15
2022-12-08T00:44:02.569Z,4.88
2022-12-08T00:49:04.906Z,5.35
2022-12-08T00:54:07.149Z,5.35
2022-12-08T00:59:08.858Z,5.87
2022-12-08T01:04:15.511Z,5.50
2022-12-08T01:09:18.295Z,4.55
2022-12-08T01:14:20.008Z,7.03
2022-12-08T01:19:21.678Z,5.37
2022-12-08T01:24:23.378Z,7.33
2022-12-08T01:29:26.362Z,6.65
2022-12-08T01:34:28.028Z,5.80
2022-12-08T01:39:30.734Z,6.10
2022-12-08T01:44:32.362Z,5.93
2022-12-08T01:49:36.413Z,7.18
2022-12-08T01:54:47.896Z,6.05
2022-12-08T02:00:08.196Z,6.05
2022-12-08T02:05:11.835Z,7.85
2022-12-08T02:10:19.855Z,7.85
2022-12-08T02:15:31.943Z,7.77
2022-12-08T02:20:45.844Z,6.93
2022-12-08T02:26:08.321Z,9.48
2022-12-08T02:31:44.288Z,8.67
2022-12-08T02:37:09.820Z,8.87
2022-12-08T02:42:32.892Z,8.03
2022-12-08T02:47:35.392Z,7.30
2022-12-08T02:52:47.649Z,8.90
2022-12-08T02:58:05.683Z,9.75
2022-12-08T03:03:07.366Z,8.75
2022-12-08T03:08:16.969Z,8.38
2022-12-08T03:13:25.559Z,7.97
2022-12-08T03:18:31.961Z,9.63
2022-12-08T03:23:36.932Z,8.07
2022-12-08T03:28:39.695Z,7.23
2022-12-08T03:33:45.499Z,8.02
2022-12-08T03:38:52.438Z,7.20
2022-12-08T03:43:59.405Z,7.43
2022-12-08T03:49:01.113Z,7.03
2022-12-08T03:54:02.795Z,7.22
2022-12-08T03:59:05.770Z,7.60
2022-12-08T04:04:07.422Z,8.25
2022-12-08T04:09:09.444Z,7.55
2022-12-08T04:14:11.113Z,7.35
2022-12-08T04:19:12.779Z,8.35
2022-12-08T04:24:14.454Z,8.93
2022-12-08T04:29:16.672Z,8.30
2022-12-08T04:34:18.346Z,7.50
2022-12-08T04:39:19.994Z,7.67
2022-12-08T04:44:21.673Z,9.10
2022-12-08T04:49:23.699Z,8.60
2022-12-08T04:54:25.402Z,8.90
2022-12-08T04:59:27.057Z,10.52
2022-12-08T05:04:28.739Z,10.52
2022-12-08T05:09:30.443Z,10.25
2022-12-08T05:14:32.122Z,8.93
2022-12-08T05:19:33.798Z,11.30
2022-12-08T05:24:35.702Z,9.50
2022-12-08T05:29:37.385Z,10.05
2022-12-08T05:34:39.057Z,10.52
2022-12-08T05:39:40.757Z,9.73
2022-12-08T05:44:42.412Z,8.80
2022-12-08T05:49:44.139Z,8.75
2022-12-08T05:54:45.816Z,10.27
2022-12-08T05:59:47.473Z,8.73
2022-12-08T06:04:49.277Z,8.35
2022-12-08T06:09:51.000Z,8.77
2022-12-08T06:14:52.703Z,7.80
2022-12-08T06:19:54.360Z,8.20
2022-12-08T06:24:56.031Z,9.32
2022-12-08T06:29:57.852Z,7.00
2022-12-08T06:34:59.520Z,7.90
2022-12-08T06:40:01.416Z,8.03
2022-12-08T06:45:03.833Z,7.87
2022-12-08T06:50:07.773Z,8.37
2022-12-08T06:55:09.974Z,8.48
2022-12-08T07:00:12.352Z,8.27
2022-12-08T07:05:14.113Z,9.53
2022-12-08T07:10:15.796Z,8.93
2022-12-08T07:15:17.590Z,8.57
2022-12-08T07:20:19.292Z,9.57
2022-12-08T07:25:21.451Z,9.77
2022-12-08T07:30:23.199Z,9.43
2022-12-08T07:35:24.887Z,9.70
2022-12-08T07:40:26.612Z,10.50
2022-12-08T07:45:31.421Z,9.70
2022-12-08T07:50:34.111Z,10.13
2022-12-08T07:55:40.510Z,8.95
2022-12-08T08:00:42.225Z,11.57
2022-12-08T08:05:49.272Z,9.95
2022-12-08T08:10:50.987Z,9.77
2022-12-08T08:15:52.759Z,10.30
2022-12-08T08:20:54.454Z,10.80
2022-12-08T08:25:59.537Z,11.07
2022-12-08T08:31:02.054Z,12.10
2022-12-08T08:36:08.265Z,11.38
2022-12-08T08:41:11.533Z,9.23
2022-12-08T08:46:13.251Z,8.93
2022-12-08T08:51:15.304Z,9.25
2022-12-08T08:56:19.466Z,9.52
2022-12-08T09:01:27.658Z,9.40
2022-12-08T09:06:29.480Z,10.68
2022-12-08T09:11:32.411Z,10.43
2022-12-08T09:16:38.935Z,10.70
2022-12-08T09:21:43.565Z,9.15
2022-12-08T09:26:45.781Z,8.68
2022-12-08T09:31:47.587Z,7.97
2022-12-08T09:36:49.298Z,9.40
2022-12-08T09:41:58.655Z,9.07
2022-12-08T09:47:03.484Z,8.80
2022-12-08T09:52:12.166Z,9.57
2022-12-08T09:57:19.307Z,8.48
2022-12-08T10:02:25.617Z,8.98
2022-12-08T10:07:39.551Z,7.57
2022-12-08T10:13:08.123Z,7.97
2022-12-08T10:18:19.964Z,7.38
2022-12-08T10:23:30.231Z,7.28
2022-12-08T10:28:33.628Z,6.72
2022-12-08T10:33:35.348Z,6.53
2022-12-08T10:38:39.223Z,6.90
2022-12-08T10:44:01.846Z,7.13
2022-12-08T10:49:03.475Z,5.97
2022-12-08T10:54:06.640Z,6.53
2022-12-08T10:59:16.508Z,5.60
2022-12-08T11:04:25.192Z,5.70
2022-12-08T11:09:39.917Z,5.68
2022-12-08T11:14:44.573Z,4.97
2022-12-08T11:20:02.104Z,4.85
2022-12-08T11:25:17.934Z,4.90
2022-12-08T11:30:25.200Z,5.20
2022-12-08T11:35:30.851Z,5.20
2022-12-08T11:40:37.542Z,5.25
2022-12-08T11:45:41.133Z,4.72
2022-12-08T11:51:09.473Z,4.78
2022-12-08T11:56:20.069Z,3.72
2022-12-08T12:01:26.622Z,4.15
2022-12-08T12:07:05.387Z,3.67
2022-12-08T12:12:22.124Z,4.60
2022-12-08T12:17:26.552Z,4.53
2022-12-08T12:22:34.340Z,3.78
2022-12-08T12:27:40.596Z,3.38
2022-12-08T12:32:51.757Z,3.78
2022-12-08T12:37:59.446Z,3.72
2022-12-08T12:43:01.065Z,4.00
2022-12-08T12:48:02.850Z,5.00
2022-12-08T12:53:09.272Z,5.00
2022-12-08T12:58:27.419Z,4.97
2022-12-08T13:03:29.129Z,4.68
2022-12-08T13:08:31.456Z,4.50
2022-12-08T13:13:33.558Z,5.57
2022-12-08T13:18:39.825Z,4.80
2022-12-08T13:23:44.093Z,5.05
2022-12-08T13:29:13.065Z,4.95
2022-12-08T13:34:14.705Z,6.10
2022-12-08T13:39:32.485Z,4.25
2022-12-08T13:45:19.819Z,5.15
2022-12-08T13:51:23.537Z,4.78
2022-12-08T14:01:22.056Z,5.20
2022-12-08T14:06:46.097Z,5.53
2022-12-08T14:11:54.911Z,5.35
2022-12-08T14:17:06.000Z,6.15
2022-12-08T14:22:17.855Z,5.68
2022-12-08T14:27:23.335Z,6.10
2022-12-08T14:32:43.421Z,5.75
2022-12-08T14:37:48.718Z,6.80
2022-12-08T14:43:05.191Z,5.47
2022-12-08T14:48:38.887Z,6.03
2022-12-08T14:54:13.231Z,5.50
2022-12-08T14:59:19.863Z,5.13
2022-12-08T15:04:27.045Z,5.77
2022-12-08T15:09:34.939Z,6.35
2022-12-08T15:14:38.592Z,6.38
2022-12-08T15:19:40.333Z,7.20
2022-12-08T15:24:42.041Z,6.38
2022-12-08T15:29:43.906Z,6.35
2022-12-08T15:34:45.589Z,6.30
2022-12-08T15:39:47.567Z,6.80
2022-12-08T15:44:49.248Z,6.40
2022-12-08T15:49:52.993Z,5.68
2022-12-08T15:54:54.897Z,6.40
2022-12-08T15:59:58.830Z,6.22
2022-12-08T16:05:40.316Z,5.55
2022-12-08T16:10:25.166Z,5.78
2022-12-08T16:31:41.684Z,5.78
2022-12-08T16:36:43.464Z,5.60
2022-12-08T16:42:03.471Z,5.45
2022-12-08T16:47:09.300Z,5.82
2022-12-08T16:52:11.221Z,6.15
2022-12-08T16:57:12.886Z,5.72
2022-12-08T17:02:16.533Z,6.00
2022-12-08T17:07:18.494Z,6.32
2022-12-08T17:12:20.186Z,5.85
2022-12-08T17:17:21.886Z,6.57
2022-12-08T17:22:23.616Z,6.13
2022-12-08T17:27:25.357Z,6.25
2022-12-08T17:32:27.223Z,5.45
2022-12-08T17:37:29.245Z,6.00
2022-12-08T17:42:30.903Z,6.22
2022-12-08T17:47:32.655Z,4.43
2022-12-08T17:52:34.355Z,6.97
2022-12-08T17:57:36.117Z,6.22
2022-12-08T18:02:38.058Z,6.45
2022-12-08T18:07:39.862Z,7.07
2022-12-08T18:12:42.142Z,6.72
2022-12-08T18:17:43.927Z,6.65
2022-12-08T18:22:45.783Z,7.35
2022-12-08T18:27:47.864Z,7.30
2022-12-08T18:32:54.184Z,7.63
2022-12-08T18:38:00.225Z,6.68
2022-12-08T18:43:01.919Z,7.35
2022-12-08T18:48:03.909Z,7.40
2022-12-08T18:53:05.584Z,6.45
2022-12-08T18:58:07.259Z,7.03
2022-12-08T19:03:09.220Z,6.35
2022-12-08T19:08:11.058Z,6.80
2022-12-08T19:13:12.791Z,5.88
2022-12-08T19:18:14.516Z,6.10
2022-12-08T19:23:16.222Z,6.30
2022-12-08T19:28:17.970Z,6.20
2022-12-08T19:33:20.084Z,6.57
2022-12-08T19:38:21.810Z,6.82
2022-12-08T19:43:42.122Z,5.80
2022-12-08T19:48:44.160Z,6.57
2022-12-08T19:53:47.805Z,6.38
2022-12-08T19:58:49.768Z,6.47
2022-12-08T20:03:51.455Z,6.55
2022-12-08T20:08:54.168Z,6.10
2022-12-08T20:13:56.306Z,6.53
2022-12-08T20:18:58.118Z,6.35
2022-12-08T20:23:59.838Z,6.30
2022-12-08T20:29:01.576Z,6.35
2022-12-08T20:34:03.347Z,5.93
2022-12-08T20:39:05.091Z,6.60
2022-12-08T20:44:06.945Z,5.57
2022-12-08T20:49:08.787Z,6.20
2022-12-08T20:54:11.132Z,7.72
2022-12-08T20:59:16.909Z,7.95
2022-12-08T21:04:18.952Z,7.60
2022-12-08T21:09:21.125Z,8.02
2022-12-08T21:14:23.035Z,7.93
2022-12-08T21:19:24.945Z,7.22
2022-12-08T21:24:31.989Z,8.57
2022-12-08T21:29:35.590Z,7.65
2022-12-08T21:34:37.657Z,8.00
2022-12-08T21:39:39.418Z,7.13
2022-12-08T21:44:41.189Z,7.90
2022-12-08T21:49:42.879Z,7.88
2022-12-08T21:54:44.644Z,7.32
2022-12-08T21:59:46.312Z,7.38
2022-12-08T22:04:49.839Z,7.40
2022-12-08T22:09:51.915Z,7.30
2022-12-08T22:14:53.853Z,7.90
2022-12-08T22:19:55.714Z,7.80
2022-12-08T22:24:57.644Z,7.32
2022-12-08T22:29:59.518Z,7.50
2022-12-08T22:35:01.303Z,7.82
2022-12-08T22:40:03.688Z,7.78
2022-12-08T22:45:06.286Z,8.98
2022-12-08T22:50:08.463Z,7.97
2022-12-08T22:55:10.564Z,7.38
2022-12-08T23:00:12.904Z,8.73
2022-12-08T23:05:15.279Z,7.75
2022-12-08T23:10:17.582Z,7.80
2022-12-08T23:15:19.571Z,7.85
2022-12-08T23:20:21.262Z,8.65
2022-12-08T23:25:23.018Z,7.47
2022-12-08T23:30:25.589Z,8.95
2022-12-08T23:35:27.338Z,6.65
2022-12-08T23:40:29.056Z,7.65
2022-12-08T23:45:31.313Z,8.85
2022-12-08T23:50:33.033Z,10.52
2022-12-08T23:55:34.827Z,10.30
